Time;durP1;ratioP1;P1;durP2;ratioP2;P2;SDS_P1;SDS_P2;PMS_P1;PMS_P2;Temp;Humidity;BMP_temperature;BMP_pressure;BME280_temperature;BME280_humidity;BME280_pressure;Samples;Min_cycle;Max_cycle;Signal;HPM_P1;HPM_P2
2021/01/06 00:00:39;;;;;;;5.90;3.45;;;;;;;0.58;91.05;100311.06;1692523;83;21246;-77
2021/01/06 00:03:05;;;;;;;6.60;4.80;;;;;;;0.56;91.02;100311.45;1693449;83;21219;-77
2021/01/06 00:05:32;;;;;;;5.70;4.47;;;;;;;0.55;91.04;100308.46;1687865;83;22023;-77
2021/01/06 00:07:58;;;;;;;5.92;3.80;;;;;;;0.56;91.06;100307.63;1686044;83;21205;-77
2021/01/06 00:10:28;;;;;;;5.55;4.10;;;;;;;0.55;91.05;100307.19;1686247;83;21230;-77
2021/01/06 00:12:55;;;;;;;6.17;5.03;;;;;;;0.55;91.05;100302.52;1690131;83;21136;-77
2021/01/06 00:15:26;;;;;;;5.95;4.58;;;;;;;0.54;91.03;100302.07;1700040;83;21100;-77
2021/01/06 00:17:52;;;;;;;7.83;5.50;;;;;;;0.55;91.08;100304.64;1689366;83;21127;-77
2021/01/06 00:20:20;;;;;;;6.28;4.45;;;;;;;0.55;91.04;100304.64;1678354;83;21155;-77
2021/01/06 00:22:47;;;;;;;6.30;5.15;;;;;;;0.58;91.07;100303.84;1685665;83;21179;-77
2021/01/06 00:25:29;;;;;;;6.17;4.78;;;;;;;0.56;91.04;100300.00;1693342;83;27314;-77
2021/01/06 00:27:56;;;;;;;9.20;4.42;;;;;;;0.59;91.08;100305.56;1693256;83;21155;-77
2021/01/06 00:30:25;;;;;;;;;;;;;;;0.56;91.01;100309.32;1700625;83;21118;-77
2021/01/06 00:32:51;;;;;;;5.95;3.95;;;;;;;0.55;91.01;100307.19;1689481;83;20259;-78
2021/01/06 00:35:20;;;;;;;5.75;3.17;;;;;;;0.53;91.02;100305.03;1699453;83;21559;-77
2021/01/06 00:37:47;;;;;;;8.48;6.03;;;;;;;0.50;91.01;100304.14;1691786;83;21142;-77
2021/01/06 00:40:15;;;;;;;5.60;4.72;;;;;;;0.49;91.03;100298.20;1694412;83;21127;-78
2021/01/06 00:42:41;;;;;;;8.40;5.33;;;;;;;0.50;91.05;100302.88;1670657;83;22741;-78
2021/01/06 00:45:12;;;;;;;7.70;5.20;;;;;;;0.51;91.09;100304.17;1689694;83;21164;-77
2021/01/06 00:47:41;;;;;;;6.67;5.10;;;;;;;0.52;91.10;100305.86;1694808;83;21481;-77
2021/01/06 00:50:09;;;;;;;8.18;5.53;;;;;;;0.55;91.14;100306.33;1693277;83;21118;-77
2021/01/06 00:52:35;;;;;;;8.83;6.10;;;;;;;0.58;91.16;100309.80;1689251;83;21131;-77
2021/01/06 00:55:02;;;;;;;6.80;5.55;;;;;;;0.60;91.12;100308.55;1695811;83;21334;-78
2021/01/06 00:57:28;;;;;;;8.68;6.33;;;;;;;0.64;91.17;100309.91;1685949;83;21163;-77
2021/01/06 00:59:54;;;;;;;9.43;5.97;;;;;;;0.66;91.13;100310.80;1677060;84;21136;-78
2021/01/06 01:02:21;;;;;;;6.05;5.20;;;;;;;0.68;91.15;100314.64;1699848;83;21155;-78
2021/01/06 01:04:47;;;;;;;6.92;5.92;;;;;;;0.70;91.15;100312.13;1654659;84;21128;-78
2021/01/06 01:07:14;;;;;;;6.45;5.83;;;;;;;0.71;91.14;100312.16;1708595;83;21833;-77
2021/01/06 01:09:40;;;;;;;9.28;5.95;;;;;;;0.73;91.17;100310.91;1693361;83;21159;-77
2021/01/06 01:12:09;;;;;;;7.22;6.22;;;;;;;0.75;91.12;100311.80;1689780;83;21477;-77
2021/01/06 01:14:35;;;;;;;9.55;5.87;;;;;;;0.75;91.08;100307.98;1675033;83;21138;-77
2021/01/06 01:17:03;;;;;;;8.85;6.17;;;;;;;0.75;91.11;100305.03;1686199;83;21132;-77
2021/01/06 01:19:29;;;;;;;6.42;5.60;;;;;;;0.75;91.09;100311.39;1686392;83;21246;-77
2021/01/06 01:21:55;;;;;;;8.58;6.60;;;;;;;0.76;91.09;100313.52;1695552;83;21150;-77
2021/01/06 01:24:22;;;;;;;7.85;6.37;;;;;;;0.74;91.02;100306.27;1700421;83;21123;-77
2021/01/06 01:26:52;;;;;;;8.70;6.00;;;;;;;0.72;91.03;100307.92;1687586;83;21118;-77
2021/01/06 01:29:19;;;;;;;7.35;5.95;;;;;;;0.70;91.00;100304.49;1700685;83;21132;-77
2021/01/06 01:31:46;;;;;;;9.35;6.30;;;;;;;0.70;91.03;100302.81;1682720;83;21243;-77
2021/01/06 01:34:13;;;;;;;7.17;5.80;;;;;;;0.71;91.06;100305.80;1700696;83;21131;-77
2021/01/06 01:36:47;;;;;;;8.18;6.25;;;;;;;0.73;91.06;100299.46;1687610;83;21126;-77
2021/01/06 01:39:13;;;;;;;6.97;6.28;;;;;;;0.69;91.01;100298.55;1690344;83;21126;-77
2021/01/06 01:41:39;;;;;;;9.33;6.42;;;;;;;0.69;91.02;100304.05;1704761;83;21126;-77
2021/01/06 01:44:06;;;;;;;8.28;5.97;;;;;;;0.71;91.10;100299.84;1685756;83;21189;-77
2021/01/06 01:47:02;;;;;;;10.50;6.67;;;;;;;0.72;91.09;100296.48;1684874;83;21099;-77
2021/01/06 01:49:33;;;;;;;9.30;5.90;;;;;;;0.73;91.08;100294.37;1696143;83;21161;-77
2021/01/06 01:52:19;;;;;;;8.55;7.17;;;;;;;0.73;91.08;100291.83;1697928;83;21213;-77
2021/01/06 01:54:46;;;;;;;8.53;6.75;;;;;;;0.71;91.02;100284.17;1691202;83;21123;-77
2021/01/06 01:57:17;;;;;;;7.80;6.65;;;;;;;0.69;91.01;100284.55;1703331;83;21155;-77
2021/01/06 01:59:54;;;;;;;10.43;6.90;;;;;;;0.70;91.09;100282.87;1690111;83;21174;-77
2021/01/06 02:03:06;;;;;;;7.67;6.87;;;;;;;0.71;91.10;100284.58;1688055;83;21150;-77
2021/01/06 02:05:55;;;;;;;10.03;7.60;;;;;;;0.71;91.09;100285.44;1697153;83;21122;-77
2021/01/06 02:08:35;;;;;;;8.15;7.35;;;;;;;0.73;91.10;100288.88;1672248;84;21642;-77
2021/01/06 02:11:15;;;;;;;10.28;7.58;;;;;;;0.72;91.09;100278.25;1685407;83;22242;-77
2021/01/06 02:13:44;;;;;;;8.55;6.55;;;;;;;0.73;91.09;100279.97;1689883;83;21146;-77
2021/01/06 02:16:25;;;;;;;12.20;7.20;;;;;;;0.73;91.10;100277.83;1642821;86;21123;-77
2021/01/06 02:18:51;;;;;;;10.15;8.05;;;;;;;0.76;91.14;100281.70;1642086;86;21155;-77
2021/01/06 02:21:22;;;;;;;9.38;7.28;;;;;;;0.78;91.15;100282.59;1647858;86;21139;-77
2021/01/06 02:23:52;;;;;;;8.80;7.55;;;;;;;0.79;91.15;100283.89;1639338;86;21767;-77
2021/01/06 02:26:20;;;;;;;11.00;7.58;;;;;;;0.81;91.14;100280.10;1632217;86;225336;-77
2021/01/06 02:28:48;;;;;;;9.38;6.95;;;;;;;0.82;91.12;100279.27;1592508;89;21273;-77
2021/01/06 02:31:16;;;;;;;10.28;7.70;;;;;;;0.82;91.10;100278.00;1592412;89;21239;-77
2021/01/06 02:33:43;;;;;;;8.15;7.30;;;;;;;0.82;91.09;100275.45;1604063;89;21780;-77
2021/01/06 02:36:10;;;;;;;12.68;7.72;;;;;;;0.83;91.10;100279.30;1597678;89;21372;-77
2021/01/06 02:38:37;;;;;;;10.05;8.28;;;;;;;0.84;91.10;100280.16;1585613;89;21259;-77
2021/01/06 02:41:06;;;;;;;10.25;8.00;;;;;;;0.83;91.08;100272.94;1616761;86;21238;-77
2021/01/06 02:43:32;;;;;;;8.53;7.62;;;;;;;0.85;91.12;100276.38;1635356;86;22131;-78
2021/01/06 02:45:59;;;;;;;10.53;7.25;;;;;;;0.86;91.11;100275.95;1642179;86;27010;-77
2021/01/06 02:48:27;;;;;;;10.32;8.05;;;;;;;0.86;91.09;100275.54;1639523;86;22072;-77
2021/01/06 02:51:04;;;;;;;11.93;8.75;;;;;;;0.85;91.08;100273.83;1637507;86;21239;-77
2021/01/06 02:53:47;;;;;;;11.40;7.95;;;;;;;0.84;91.07;100277.62;1645589;86;21269;-77
2021/01/06 02:56:15;;;;;;;12.80;9.23;;;;;;;0.84;91.07;100275.92;1642174;86;21349;-77
2021/01/06 02:58:42;;;;;;;10.72;8.13;;;;;;;0.84;91.05;100272.52;1644570;86;21626;-77
2021/01/06 03:01:11;;;;;;;;;;;;;;;0.84;91.11;100274.66;1619377;86;21998;-77
2021/01/06 03:03:40;;;;;;;11.43;7.45;;;;;;;0.85;91.12;100273.83;1643107;86;20298;-77
2021/01/06 03:06:14;;;;;;;10.30;7.72;;;;;;;0.85;91.10;100272.97;1632551;86;22274;-77
2021/01/06 03:08:40;;;;;;;10.88;8.58;;;;;;;0.86;91.12;100275.95;1642200;86;21241;-77
2021/01/06 03:11:09;;;;;;;10.08;8.63;;;;;;;0.86;91.14;100275.95;1641718;84;365316;-77
2021/01/06 03:13:35;;;;;;;9.85;8.60;;;;;;;0.85;91.11;100280.60;1648448;86;21223;-77
2021/01/06 03:16:02;;;;;;;12.85;8.70;;;;;;;0.85;91.12;100275.09;1648321;86;21176;-77
2021/01/06 03:18:29;;;;;;;10.23;8.43;;;;;;;0.82;91.06;100276.31;1650571;85;21208;-77
2021/01/06 03:20:58;;;;;;;;;;;;;;;0.81;91.04;100277.56;1659610;86;21990;-77
2021/01/06 03:23:38;;;;;;;12.93;9.23;;;;;;;0.78;91.04;100280.91;1645542;86;20537;-77
2021/01/06 03:26:09;;;;;;;11.33;8.85;;;;;;;0.75;91.04;100278.30;1628397;86;21169;-77
2021/01/06 03:28:38;;;;;;;12.75;9.65;;;;;;;0.76;91.08;100277.89;1653197;84;21141;-78
2021/01/06 03:31:09;;;;;;;11.45;8.80;;;;;;;0.79;91.16;100276.67;1650180;86;21148;-77
2021/01/06 03:33:50;;;;;;;11.93;9.05;;;;;;;0.80;91.15;100283.48;1626427;86;21525;-77
2021/01/06 03:36:21;;;;;;;13.45;9.23;;;;;;;0.81;91.13;100277.14;1650393;86;21146;-77
2021/01/06 03:38:53;;;;;;;12.98;9.13;;;;;;;0.81;91.12;100274.60;1638532;86;21525;-77
2021/01/06 03:41:19;;;;;;;12.55;10.00;;;;;;;0.82;91.11;100272.91;1657309;86;21147;-77
2021/01/06 03:43:53;;;;;;;15.32;10.10;;;;;;;0.82;91.12;100271.23;1648630;86;21572;-78
2021/01/06 03:46:27;;;;;;;15.18;10.05;;;;;;;0.81;91.09;100272.05;1649043;86;21112;-77
2021/01/06 03:49:05;;;;;;;14.13;10.40;;;;;;;0.83;91.10;100273.36;1624630;87;21203;-77
2021/01/06 03:52:03;;;;;;;16.12;11.18;;;;;;;0.83;91.13;100273.36;1644985;85;21933;-77
2021/01/06 03:54:53;;;;;;;15.63;10.75;;;;;;;0.82;91.13;100273.77;1657499;85;21175;-76
2021/01/06 03:57:22;;;;;;;14.33;9.85;;;;;;;0.83;91.11;100274.63;1644532;86;21131;-77
2021/01/06 03:59:50;;;;;;;14.33;10.80;;;;;;;0.83;91.11;100265.30;1660061;85;21455;-77
2021/01/06 04:02:28;;;;;;;15.72;11.38;;;;;;;0.83;91.08;100269.12;1663661;85;21103;-77
2021/01/06 04:05:10;;;;;;;14.10;11.35;;;;;;;0.82;91.08;100263.59;1664091;85;21159;-77
2021/01/06 04:07:48;;;;;;;15.50;11.85;;;;;;;0.83;91.11;100261.91;1664165;85;21129;-77
2021/01/06 04:10:18;;;;;;;16.85;11.20;;;;;;;0.85;91.13;100257.70;1665365;85;21181;-77
2021/01/06 04:12:45;;;;;;;15.25;11.18;;;;;;;0.86;91.12;100254.32;1656310;85;21578;-77
2021/01/06 04:15:13;;;;;;;15.25;10.35;;;;;;;0.86;91.12;100256.45;1660422;85;21613;-77
2021/01/06 04:17:44;;;;;;;17.57;11.03;;;;;;;0.86;91.11;100250.50;1658727;85;21253;-77
2021/01/06 04:20:36;;;;;;;17.55;10.80;;;;;;;0.88;91.11;100255.20;1661882;85;21195;-77
2021/01/06 04:23:07;;;;;;;18.32;11.55;;;;;;;0.89;91.13;100253.10;1582024;89;21261;-77
2021/01/06 04:25:38;;;;;;;15.53;10.40;;;;;;;0.89;91.14;100253.95;1578449;89;21270;-77
2021/01/06 04:28:21;;;;;;;15.15;11.25;;;;;;;0.90;91.14;100247.18;1577430;89;21261;-77
2021/01/06 04:31:07;;;;;;;13.55;10.25;;;;;;;0.91;91.14;100250.17;1571241;89;21877;-77
2021/01/06 04:33:41;;;;;;;14.58;11.22;;;;;;;0.90;91.12;100242.95;1576899;89;21249;-76
2021/01/06 04:36:13;;;;;;;15.18;10.68;;;;;;;0.90;91.09;100246.77;1580800;89;21266;-76
2021/01/06 04:38:46;;;;;;;18.70;11.53;;;;;;;0.90;91.10;100245.91;1582420;89;21363;-76
2021/01/06 04:41:59;;;;;;;14.93;10.80;;;;;;;0.90;91.11;100249.31;1579628;89;21787;-76
2021/01/06 04:44:58;;;;;;;14.25;10.43;;;;;;;0.90;91.10;100248.45;1576038;89;21736;-77
2021/01/06 04:47:37;;;;;;;14.35;11.33;;;;;;;0.90;91.13;100247.18;1579467;89;21262;-77
2021/01/06 04:50:25;;;;;;;14.28;10.32;;;;;;;0.91;91.15;100251.44;1585556;89;21249;-77
2021/01/06 04:53:30;;;;;;;14.25;10.55;;;;;;;0.91;91.17;100256.12;1580064;89;21180;-77
2021/01/06 04:56:33;;;;;;;18.77;11.53;;;;;;;0.90;91.11;100254.81;1657170;85;21127;-77
2021/01/06 04:59:29;;;;;;;15.20;10.55;;;;;;;0.90;91.10;100254.81;1656367;85;21515;-77
2021/01/06 05:02:20;;;;;;;16.12;10.75;;;;;;;0.91;91.15;100256.53;1656920;85;21148;-77
2021/01/06 05:05:19;;;;;;;14.05;10.53;;;;;;;0.92;91.17;100256.56;1661801;85;21492;-77
2021/01/06 05:08:05;;;;;;;15.83;10.40;;;;;;;0.91;91.17;100254.84;1660140;85;21123;-77
2021/01/06 05:10:42;;;;;;;14.00;10.70;;;;;;;0.92;91.13;100255.70;1660039;85;21420;-78
2021/01/06 05:13:38;;;;;;;16.87;11.70;;;;;;;0.90;91.12;100251.86;1659730;85;21317;-77
2021/01/06 05:16:09;;;;;;;17.10;11.35;;;;;;;0.91;91.12;100252.71;1663054;85;21161;-77
2021/01/06 05:18:35;;;;;;;19.42;11.75;;;;;;;0.93;91.17;100256.14;1660410;85;21154;-77
2021/01/06 05:21:06;;;;;;;17.00;11.00;;;;;;;0.93;91.17;100258.69;1651120;85;21139;-77
2021/01/06 05:23:30;;;;;;;14.85;11.18;;;;;;;0.94;91.16;100261.67;1639208;86;20997;-77
2021/01/06 05:26:00;;;;;;;18.35;11.08;;;;;;;0.93;91.15;100258.27;1664903;85;21176;-77
2021/01/06 05:28:26;;;;;;;20.32;12.82;;;;;;;0.93;91.13;100257.41;1651050;85;21221;-77
2021/01/06 05:30:58;;;;;;;20.45;12.05;;;;;;;0.94;91.12;100261.67;1659646;85;21180;-77
2021/01/06 05:33:35;;;;;;;19.20;13.05;;;;;;;0.94;91.12;100255.31;1669507;85;21207;-77
2021/01/06 05:36:02;;;;;;;24.25;13.98;;;;;;;0.94;91.13;100262.53;1657979;85;21279;-77
2021/01/06 05:38:29;;;;;;;28.25;14.68;;;;;;;0.94;91.13;100262.95;1658369;85;21207;-77
2021/01/06 05:40:55;;;;;;;25.77;15.68;;;;;;;0.94;91.12;100261.67;1654924;85;21288;-77
2021/01/06 05:43:33;;;;;;;23.22;14.13;;;;;;;0.93;91.08;100259.55;1654444;85;27599;-76
2021/01/06 05:46:03;;;;;;;24.10;15.20;;;;;;;0.94;91.12;100254.04;1654417;85;21186;-76
2021/01/06 05:48:50;;;;;;;25.77;14.45;;;;;;;0.94;91.13;100256.17;1659430;85;21201;-77
2021/01/06 05:51:31;;;;;;;26.85;14.85;;;;;;;0.94;91.14;100260.41;1653772;85;22072;-77
2021/01/06 05:54:02;;;;;;;23.47;14.33;;;;;;;0.94;91.08;100266.77;1649999;85;21206;-76
2021/01/06 05:56:52;;;;;;;24.92;13.13;;;;;;;0.94;91.12;100259.12;1659169;85;21186;-76
2021/01/06 05:59:49;;;;;;;22.77;14.07;;;;;;;0.92;91.10;100264.20;1651913;86;21254;-76
2021/01/06 06:02:27;;;;;;;23.07;12.78;;;;;;;0.92;91.11;100264.61;1658842;85;21198;-76
2021/01/06 06:05:14;;;;;;;18.15;12.40;;;;;;;0.88;91.07;100268.78;1655698;85;22198;-77
2021/01/06 06:08:23;;;;;;;24.27;13.93;;;;;;;0.88;91.10;100273.02;1658647;85;21612;-76
2021/01/06 06:11:29;;;;;;;25.30;13.13;;;;;;;0.89;91.12;100268.38;1647846;85;21210;-76
2021/01/06 06:14:47;;;;;;;21.73;12.30;;;;;;;0.88;91.12;100266.24;1658653;86;21222;-75
2021/01/06 06:17:27;;;;;;;26.42;12.13;;;;;;;0.86;91.12;100273.00;1651491;85;21178;-75
2021/01/06 06:20:05;;;;;;;24.57;13.05;;;;;;;0.84;91.12;100270.84;1653432;85;21529;-75
2021/01/06 06:23:13;;;;;;;23.87;12.90;;;;;;;0.85;91.12;100275.09;1658759;85;21217;-76
2021/01/06 06:25:50;;;;;;;19.12;12.43;;;;;;;0.85;91.14;100271.28;1648698;86;21239;-75
2021/01/06 06:28:25;;;;;;;25.32;12.93;;;;;;;0.85;91.14;100267.87;1651246;85;21187;-75
2021/01/06 06:31:22;;;;;;;19.15;11.93;;;;;;;0.83;91.13;100266.58;1656588;86;21184;-75
2021/01/06 06:33:55;;;;;;;22.80;11.90;;;;;;;0.82;91.11;100271.23;1656267;85;21456;-75
2021/01/06 06:36:25;;;;;;;25.00;12.05;;;;;;;0.81;91.11;100271.20;1659087;85;21505;-75
2021/01/06 06:38:53;;;;;;;21.75;12.13;;;;;;;0.81;91.11;100277.14;1638977;86;21135;-76
2021/01/06 06:41:30;;;;;;;22.45;12.15;;;;;;;0.82;91.12;100276.73;1658245;85;21143;-76
2021/01/06 06:44:19;;;;;;;22.40;10.98;;;;;;;0.81;91.12;100277.14;1636880;86;21918;-77
2021/01/06 06:47:02;;;;;;;19.73;10.98;;;;;;;0.80;91.10;100293.24;1656276;85;21342;-76
2021/01/06 06:50:11;;;;;;;19.67;10.90;;;;;;;0.78;91.08;100287.69;1625941;86;21191;-76
2021/01/06 06:52:51;;;;;;;21.07;11.55;;;;;;;0.76;91.06;100291.47;1656223;85;21154;-76
2021/01/06 06:55:49;;;;;;;21.35;10.82;;;;;;;0.76;91.10;100291.89;1648305;85;21104;-76
2021/01/06 06:58:52;;;;;;;17.35;10.65;;;;;;;0.78;91.15;100294.91;1643100;85;21201;-76
2021/01/06 07:01:24;;;;;;;24.05;11.85;;;;;;;0.79;91.15;100297.89;1652332;85;21261;-76
2021/01/06 07:04:07;;;;;;;16.17;10.75;;;;;;;0.79;91.12;100301.70;1644521;85;21202;-76
2021/01/06 07:06:35;;;;;;;21.55;11.95;;;;;;;0.79;91.12;100307.21;1622906;86;21180;-76
2021/01/06 07:09:03;;;;;;;25.05;12.45;;;;;;;0.79;91.12;100305.94;1645311;85;21214;-76
2021/01/06 07:11:46;;;;;;;22.77;12.78;;;;;;;0.79;91.11;100310.61;1618670;86;21267;-76
2021/01/06 07:14:24;;;;;;;23.10;13.43;;;;;;;0.78;91.09;100310.17;1647628;86;21044;-76
2021/01/06 07:17:01;;;;;;;20.72;11.35;;;;;;;0.77;91.08;100312.69;1627570;86;21230;-76
2021/01/06 07:19:36;;;;;;;19.77;12.75;;;;;;;0.76;91.05;100316.92;1639986;85;21234;-76
2021/01/06 07:22:31;;;;;;;20.12;11.55;;;;;;;0.76;91.09;100323.28;1647083;86;21196;-76
2021/01/06 07:25:08;;;;;;;18.98;12.00;;;;;;;0.78;91.14;100325.44;1640173;85;21217;-77
2021/01/06 07:27:36;;;;;;;21.85;13.40;;;;;;;0.79;91.11;100325.03;1638215;86;22284;-77
2021/01/06 07:30:08;;;;;;;24.32;13.90;;;;;;;0.80;91.14;100334.38;1643053;86;21198;-77
2021/01/06 07:32:42;;;;;;;22.62;13.78;;;;;;;0.81;91.14;100333.13;1648154;85;21131;-77
2021/01/06 07:35:21;;;;;;;23.50;13.65;;;;;;;0.82;91.15;100336.13;1649787;86;21234;-77
2021/01/06 07:38:00;;;;;;;26.30;15.08;;;;;;;0.83;91.12;100335.70;1650348;86;21223;-77
2021/01/06 07:40:31;;;;;;;24.85;14.03;;;;;;;0.83;91.15;100337.84;1647470;86;21231;-77
2021/01/06 07:43:12;;;;;;;18.12;13.22;;;;;;;0.84;91.12;100338.70;1649249;85;21166;-77
2021/01/06 07:46:03;;;;;;;26.62;14.10;;;;;;;0.85;91.13;100337.87;1649679;85;21131;-77
2021/01/06 07:49:04;;;;;;;23.00;13.45;;;;;;;0.87;91.14;100340.88;1651735;85;21175;-77
2021/01/06 07:51:59;;;;;;;23.47;13.40;;;;;;;0.89;91.14;100341.77;1644209;86;21148;-77
2021/01/06 07:54:37;;;;;;;15.83;11.15;;;;;;;0.92;91.12;100347.33;1623224;86;21140;-77
2021/01/06 07:57:20;;;;;;;16.17;10.63;;;;;;;0.92;91.12;100350.73;1625703;86;21124;-76
2021/01/06 07:59:57;;;;;;;17.48;10.90;;;;;;;0.94;91.08;100354.58;1648499;86;21960;-76
2021/01/06 08:02:35;;;;;;;20.52;11.03;;;;;;;0.95;91.10;100351.20;1681305;85;21146;-76
2021/01/06 08:05:33;;;;;;;16.12;11.78;;;;;;;0.97;91.09;100361.00;1680082;83;21137;-76
2021/01/06 08:08:13;;;;;;;16.20;11.10;;;;;;;0.98;91.11;100357.62;1669674;84;21576;-76
2021/01/06 08:10:42;;;;;;;19.35;11.45;;;;;;;0.98;91.02;100362.30;1676932;83;21153;-76
2021/01/06 08:13:31;;;;;;;22.32;12.50;;;;;;;1.01;91.06;100360.65;1672764;84;21563;-76
2021/01/06 08:16:23;;;;;;;19.27;12.07;;;;;;;1.02;91.03;100361.09;1647040;83;21162;-76
2021/01/06 08:19:12;;;;;;;17.70;11.70;;;;;;;1.02;91.01;100358.13;1659260;83;21150;-76
2021/01/06 08:22:09;;;;;;;15.90;10.60;;;;;;;1.07;91.10;100359.04;1682020;84;21182;-76
2021/01/06 08:24:52;;;;;;;17.32;9.48;;;;;;;1.08;91.07;100359.48;1636958;86;21163;-77
2021/01/06 08:27:41;;;;;;;15.20;10.08;;;;;;;1.10;91.03;100365.46;1631050;86;21240;-77
2021/01/06 08:30:23;;;;;;;17.27;10.50;;;;;;;1.10;90.99;100368.01;1594700;88;21498;-79
2021/01/06 08:33:09;;;;;;;15.15;10.10;;;;;;;1.09;90.93;100372.66;1639405;86;21139;-79
2021/01/06 08:35:40;;;;;;;15.65;9.73;;;;;;;1.11;90.99;100376.50;1616163;88;21606;-79
2021/01/06 08:38:31;;;;;;;19.80;10.95;;;;;;;1.12;91.01;100374.41;1601284;88;21279;-79
2021/01/06 08:41:20;;;;;;;21.23;11.45;;;;;;;1.12;90.99;100374.41;1610468;88;21163;-80
2021/01/06 08:43:47;;;;;;;23.98;12.25;;;;;;;1.13;91.03;100376.98;1587324;89;21150;-79
2021/01/06 08:46:32;;;;;;;18.92;11.73;;;;;;;1.14;91.02;100377.42;1611163;88;21908;-79
2021/01/06 08:49:29;;;;;;;19.82;10.88;;;;;;;1.16;91.02;100384.67;1606040;88;21556;-79
2021/01/06 08:52:18;;;;;;;20.02;12.18;;;;;;;1.16;90.99;100383.81;1606402;88;21201;-79
2021/01/06 08:55:02;;;;;;;17.25;10.55;;;;;;;1.16;90.99;100389.77;1595829;88;21575;-79
2021/01/06 08:57:36;;;;;;;18.32;11.53;;;;;;;1.15;90.99;100379.13;1604398;88;21162;-79
2021/01/06 09:00:26;;;;;;;17.17;11.28;;;;;;;1.14;90.96;100379.97;1603449;89;21232;-78
2021/01/06 09:02:58;;;;;;;22.70;12.53;;;;;;;1.13;90.93;100384.61;1643297;86;21263;-78
2021/01/06 09:05:47;;;;;;;20.05;12.13;;;;;;;1.12;90.90;100385.86;1636114;86;21679;-78
2021/01/06 09:08:19;;;;;;;16.52;11.28;;;;;;;1.11;90.94;100381.59;1646301;86;21164;-77
2021/01/06 09:11:26;;;;;;;20.12;12.60;;;;;;;1.12;90.95;100385.86;1650978;86;21138;-77
2021/01/06 09:14:01;;;;;;;22.75;12.45;;;;;;;1.12;90.94;100385.86;1649496;86;21121;-78
2021/01/06 09:16:49;;;;;;;20.48;12.73;;;;;;;1.11;90.93;100390.51;1650590;85;21153;-78
2021/01/06 09:19:45;;;;;;;19.77;13.08;;;;;;;1.11;90.92;100387.55;1651632;86;21120;-78
2021/01/06 09:22:13;;;;;;;;;;;;;;;1.11;90.92;100393.05;1658912;86;21108;-78
2021/01/06 09:24:41;;;;;;;;;;;;;;;1.10;90.94;100388.38;1652027;85;20260;-78
2021/01/06 09:27:23;;;;;;;;;;;;;;;1.11;90.95;100386.27;1653296;86;20525;-78
2021/01/06 09:29:49;;;;;;;;;;;;;;;1.10;90.92;100392.20;1642824;86;21171;-78
2021/01/06 09:32:18;;;;;;;;;;;;;;;1.10;90.92;100391.34;1652069;86;20264;-78
2021/01/06 09:34:50;;;;;;;;;;;;;;;1.11;90.90;100394.33;1657703;86;20282;-78
2021/01/06 09:37:18;;;;;;;;;;;;;;;1.11;90.94;100391.37;1648181;86;20521;-78
2021/01/06 09:39:45;;;;;;;;;;;;;;;1.12;90.92;100394.77;1653672;86;20264;-78
2021/01/06 09:42:12;;;;;;;;;;;;;;;1.14;90.92;100391.42;1659845;86;21111;-78
2021/01/06 09:44:38;;;;;;;;;;;;;;;1.15;90.95;100395.69;1647766;86;20288;-78
2021/01/06 09:47:10;;;;;;;;;;;;;;;1.18;90.97;100389.80;1646689;86;20209;-78
2021/01/06 09:49:45;;;;;;;;;;;;;;;1.18;90.92;100383.02;1648627;86;20265;-78
2021/01/06 09:52:20;;;;;;;;;;;;;;;1.19;90.89;100387.27;1648595;86;20261;-78
2021/01/06 09:54:46;;;;;;;;;;;;;;;1.21;90.91;100386.03;1660477;84;21176;-78
2021/01/06 09:57:14;;;;;;;;;;;;;;;1.22;90.96;100384.78;1653301;86;20498;-78
2021/01/06 09:59:40;;;;;;;;;;;;;;;1.25;90.97;100379.75;1652232;84;20271;-78
2021/01/06 10:02:13;;;;;;;;;;;;;;;1.26;90.92;100380.60;1663642;85;20623;-78
2021/01/06 10:04:41;;;;;;;;;;;;;;;1.30;90.96;100373.45;1660663;85;20262;-78
2021/01/06 10:07:35;;;;;;;;;;;;;;;1.32;90.97;100375.20;1656740;85;21244;-78
2021/01/06 10:10:33;;;;;;;;;;;;;;;1.36;90.98;100372.30;1661608;85;20765;-78
2021/01/06 10:13:10;;;;;;;;;;;;;;;1.38;90.96;100359.16;1654787;85;20611;-78
2021/01/06 10:15:55;;;;;;;;;;;;;;;1.41;90.93;100364.73;1649145;85;20267;-78
2021/01/06 10:18:31;;;;;;;;;;;;;;;1.45;90.95;100362.67;1650914;86;20513;-78
2021/01/06 10:21:00;;;;;;;;;;;;;;;1.46;90.91;100361.42;1658641;86;21296;-78
2021/01/06 10:23:38;;;;;;;;;;;;;;;1.48;90.91;100364.00;1655773;85;20259;-77
2021/01/06 10:26:24;;;;;;;;;;;;;;;1.50;90.90;100363.61;1658459;85;20276;-77
2021/01/06 10:28:50;;;;;;;;;;;;;;;1.49;90.88;100363.17;1642803;85;20195;-78
2021/01/06 10:31:19;;;;;;;;;;;;;;;1.52;90.92;100363.22;1660213;85;20267;-78
2021/01/06 10:34:03;;;;;;;;;;;;;;;1.54;90.89;100366.66;1658150;85;21231;-78
2021/01/06 10:36:33;;;;;;;;;;;;;;;1.55;90.91;100367.95;1661209;86;20267;-77
2021/01/06 10:39:00;;;;;;;;;;;;;;;1.56;90.87;100362.44;1659970;85;20292;-78
2021/01/06 10:41:29;;;;;;;;;;;;;;;1.55;90.85;100356.48;1661649;86;20267;-78
2021/01/06 10:43:57;;;;;;;;;;;;;;;1.56;90.86;100355.63;1660370;85;20810;-78
2021/01/06 10:46:42;;;;;;;;;;;;;;;1.56;90.84;100356.07;1660112;85;21271;-77
2021/01/06 10:49:24;;;;;;;;;;;;;;;1.57;90.87;100356.48;1638782;85;37859;-77
2021/01/06 10:51:57;;;;;;;;;;;;;;;1.57;90.85;100355.20;1660276;85;20276;-77
2021/01/06 10:54:42;;;;;;;;;;;;;;;1.56;90.85;100358.17;1662203;85;20270;-77
2021/01/06 10:57:17;;;;;;;;;;;;;;;1.56;90.85;100359.44;1661091;85;20642;-76
2021/01/06 11:00:03;;;;;;;;;;;;;;;1.56;90.88;100356.07;1660494;85;21315;-77
2021/01/06 11:02:36;;;;;;;;;;;;;;;1.57;90.87;100353.93;1659919;85;20281;-78
2021/01/06 11:05:23;;;;;;;;;;;;;;;1.56;90.88;100349.70;1661626;85;20280;-78
2021/01/06 11:07:55;;;;;;;;;;;;;;;1.57;90.91;100343.32;1658542;85;20263;-78
2021/01/06 11:10:37;;;;;;;;;;;;;;;1.60;90.93;100348.88;1659309;85;20521;-78
2021/01/06 11:13:21;;;;;;;;;;;;;;;1.59;90.87;100348.44;1653610;85;21822;-78
2021/01/06 11:16:20;;;;;;;;;;;;;;;1.59;90.88;100348.44;1657985;85;20315;-78
2021/01/06 11:18:50;;;;;;;;;;;;;;;1.59;90.90;100352.27;1658825;85;20279;-78
2021/01/06 11:21:39;;;;;;;;;;;;;;;1.57;90.84;100343.32;1657948;85;20408;-78
2021/01/06 11:23:58;;;;;;;;;;;;;;;1.57;90.89;100345.02;1635654;86;20195;-77
2021/01/06 11:26:31;;;;;;;;;;;;;;;1.59;90.88;100349.72;1662063;85;21187;-78
2021/01/06 11:29:08;;;;;;;;;;;;;;;1.56;90.83;100346.70;1663398;85;20259;-78
2021/01/06 11:31:35;;;;;;;;;;;;;;;1.54;90.84;100344.58;1661466;85;20650;-78
2021/01/06 11:34:11;;;;;;;;;;;;;;;1.54;90.85;100335.66;1657216;85;20320;-78
2021/01/06 11:36:54;;;;;;;;;;;;;;;1.52;90.83;100333.50;1656308;85;20264;-79
2021/01/06 11:39:30;;;;;;;;;;;;;;;1.52;90.88;100330.95;1658535;85;21380;-78
2021/01/06 11:42:11;;;;;;;;;;;;;;;1.54;90.88;100328.44;1658772;86;20311;-79
2021/01/06 11:44:57;;;;;;;;;;;;;;;1.54;90.89;100325.89;1658005;85;20610;-78
2021/01/06 11:47:30;;;;;;;;;;;;;;;1.55;90.91;100322.50;1660878;85;20958;-79
2021/01/06 11:50:02;;;;;;;;;;;;;;;1.56;90.91;100325.05;1657777;86;20275;-78
2021/01/06 11:52:45;;;;;;;;;;;;;;;1.57;90.90;100311.89;1656756;85;22173;-78
2021/01/06 11:55:18;;;;;;;;;;;;;;;1.59;90.89;100308.95;1656836;85;20625;-78
2021/01/06 11:58:15;;;;;;;;;;;;;;;1.60;90.94;100306.42;1656066;85;20295;-78
2021/01/06 12:01:06;;;;;;;;;;;;;;;1.62;90.92;100303.90;1658680;85;20493;-78
2021/01/06 12:03:52;;;;;;;;;;;;;;;1.64;90.88;100309.88;1658388;85;20323;-78
2021/01/06 12:06:39;;;;;;;;;;;;;;;1.63;90.86;100305.61;1659928;86;21965;-78
2021/01/06 12:09:09;;;;;;;;;;;;;;;1.62;90.85;100303.48;1654436;85;20639;-78
2021/01/06 12:11:44;;;;;;;;;;;;;;;1.61;90.84;100297.94;1649764;85;20502;-78
2021/01/06 12:14:22;;;;;;;;;;;;;;;1.64;90.91;100297.13;1653580;85;20276;-78
2021/01/06 12:16:59;;;;;;;;;;;;;;;1.64;90.89;100299.27;1655615;85;20185;-78
2021/01/06 12:19:32;;;;;;;;;;;;;;;1.66;90.89;100298.88;1656607;85;22103;-78
2021/01/06 12:22:04;;;;;;;;;;;;;;;1.66;90.86;100300.56;1660323;85;20272;-78
2021/01/06 12:24:34;;;;;;;;;;;;;;;1.66;90.84;100301.83;1660357;85;20268;-78
2021/01/06 12:27:21;;;;;;;;;;;;;;;1.65;90.82;100303.53;1660337;85;20267;-78
2021/01/06 12:29:58;;;;;;;;;;;;;;;1.66;90.83;100303.97;1661071;86;20260;-78